Terminal Aerodrome Forecast
Issued by NWS

Home | Current Version | Previous Version | Text Only | Print | Product List | Glossary On
Versions: 1 2 3 4 5 6 7 8 9 10 11 12 13 14 15 16
000
FTUS44 KTSA 270500
TAFFYV
TAF
KFYV 270520Z 2706/2806 02008KT P6SM BKN040 BKN130
     FM271200 04010KT P6SM BKN030 BKN100
     FM271800 07005KT P6SM SCT050 OVC100
     FM280000 12004KT P6SM OVC050=

USA.gov is the U.S. government's official web portal to all federal, state and local government web resources and services.